sensor_id;sensor_type;location;lat;lon;timestamp;P1;durP1;ratioP1;P2;durP2;ratioP2
19814;SDS011;10067;53.092;8.800;2024-03-17T00:02:18;45.97;;;7.10;;
19814;SDS011;10067;53.092;8.800;2024-03-17T00:04:46;36.70;;;7.83;;
19814;SDS011;10067;53.092;8.800;2024-03-17T00:07:12;39.70;;;8.20;;
19814;SDS011;10067;53.092;8.800;2024-03-17T00:09:38;39.73;;;11.43;;
19814;SDS011;10067;53.092;8.800;2024-03-17T00:12:05;36.90;;;11.80;;
19814;SDS011;10067;53.092;8.800;2024-03-17T00:14:30;29.80;;;7.70;;
19814;SDS011;10067;53.092;8.800;2024-03-17T00:16:57;28.93;;;5.97;;
19814;SDS011;10067;53.092;8.800;2024-03-17T00:19:23;38.70;;;7.60;;
19814;SDS011;10067;53.092;8.800;2024-03-17T00:21:50;30.47;;;6.87;;
19814;SDS011;10067;53.092;8.800;2024-03-17T00:24:16;24.60;;;5.07;;
19814;SDS011;10067;53.092;8.800;2024-03-17T00:26:42;21.10;;;4.80;;
19814;SDS011;10067;53.092;8.800;2024-03-17T00:29:08;34.00;;;6.43;;
19814;SDS011;10067;53.092;8.800;2024-03-17T00:31:34;28.33;;;6.13;;
19814;SDS011;10067;53.092;8.800;2024-03-17T00:33:59;32.80;;;7.80;;
19814;SDS011;10067;53.092;8.800;2024-03-17T00:36:26;29.60;;;7.53;;
19814;SDS011;10067;53.092;8.800;2024-03-17T00:38:53;28.67;;;7.30;;
19814;SDS011;10067;53.092;8.800;2024-03-17T00:41:19;26.13;;;7.93;;
19814;SDS011;10067;53.092;8.800;2024-03-17T00:43:45;43.00;;;11.73;;
19814;SDS011;10067;53.092;8.800;2024-03-17T00:46:11;37.97;;;8.93;;
19814;SDS011;10067;53.092;8.800;2024-03-17T00:48:37;29.93;;;6.97;;
19814;SDS011;10067;53.092;8.800;2024-03-17T00:51:03;30.63;;;6.90;;
19814;SDS011;10067;53.092;8.800;2024-03-17T00:53:29;25.77;;;5.63;;
19814;SDS011;10067;53.092;8.800;2024-03-17T00:55:57;27.27;;;5.63;;
19814;SDS011;10067;53.092;8.800;2024-03-17T00:58:23;26.97;;;5.83;;
19814;SDS011;10067;53.092;8.800;2024-03-17T01:00:49;25.63;;;6.10;;
19814;SDS011;10067;53.092;8.800;2024-03-17T01:03:15;35.57;;;6.40;;
19814;SDS011;10067;53.092;8.800;2024-03-17T01:05:41;28.03;;;5.60;;
19814;SDS011;10067;53.092;8.800;2024-03-17T01:08:08;27.30;;;5.47;;
19814;SDS011;10067;53.092;8.800;2024-03-17T01:10:36;20.73;;;5.83;;
19814;SDS011;10067;53.092;8.800;2024-03-17T01:13:03;34.63;;;6.13;;
19814;SDS011;10067;53.092;8.800;2024-03-17T01:15:30;29.10;;;6.00;;
19814;SDS011;10067;53.092;8.800;2024-03-17T01:17:55;25.33;;;5.87;;
19814;SDS011;10067;53.092;8.800;2024-03-17T01:20:22;27.93;;;6.70;;
19814;SDS011;10067;53.092;8.800;2024-03-17T01:22:47;30.77;;;5.60;;
19814;SDS011;10067;53.092;8.800;2024-03-17T01:25:13;22.03;;;5.87;;
19814;SDS011;10067;53.092;8.800;2024-03-17T01:27:39;40.37;;;6.43;;
19814;SDS011;10067;53.092;8.800;2024-03-17T01:30:08;28.63;;;5.50;;
19814;SDS011;10067;53.092;8.800;2024-03-17T01:32:34;26.60;;;5.47;;
19814;SDS011;10067;53.092;8.800;2024-03-17T01:35:00;31.60;;;6.40;;
19814;SDS011;10067;53.092;8.800;2024-03-17T01:37:26;24.10;;;5.63;;
19814;SDS011;10067;53.092;8.800;2024-03-17T01:39:57;17.33;;;5.27;;
19814;SDS011;10067;53.092;8.800;2024-03-17T01:42:22;29.57;;;5.90;;
19814;SDS011;10067;53.092;8.800;2024-03-17T01:44:48;30.63;;;5.97;;
19814;SDS011;10067;53.092;8.800;2024-03-17T01:47:17;22.83;;;5.20;;
19814;SDS011;10067;53.092;8.800;2024-03-17T01:49:44;20.87;;;5.20;;
19814;SDS011;10067;53.092;8.800;2024-03-17T01:52:09;26.60;;;6.47;;
19814;SDS011;10067;53.092;8.800;2024-03-17T01:54:36;24.87;;;5.40;;
19814;SDS011;10067;53.092;8.800;2024-03-17T01:57:03;23.90;;;6.07;;
19814;SDS011;10067;53.092;8.800;2024-03-17T01:59:29;20.27;;;4.80;;
19814;SDS011;10067;53.092;8.800;2024-03-17T02:01:55;32.10;;;6.27;;
19814;SDS011;10067;53.092;8.800;2024-03-17T02:04:23;24.70;;;6.00;;
19814;SDS011;10067;53.092;8.800;2024-03-17T02:06:49;30.63;;;5.53;;
19814;SDS011;10067;53.092;8.800;2024-03-17T02:09:15;29.57;;;6.20;;
19814;SDS011;10067;53.092;8.800;2024-03-17T02:11:40;20.93;;;4.93;;
19814;SDS011;10067;53.092;8.800;2024-03-17T02:14:07;20.43;;;6.20;;
19814;SDS011;10067;53.092;8.800;2024-03-17T02:16:33;23.47;;;6.07;;
19814;SDS011;10067;53.092;8.800;2024-03-17T02:18:59;30.60;;;6.57;;
19814;SDS011;10067;53.092;8.800;2024-03-17T02:21:27;23.20;;;5.83;;
19814;SDS011;10067;53.092;8.800;2024-03-17T02:23:54;25.97;;;5.73;;
19814;SDS011;10067;53.092;8.800;2024-03-17T02:26:20;20.50;;;5.27;;
19814;SDS011;10067;53.092;8.800;2024-03-17T02:28:47;27.30;;;6.10;;
19814;SDS011;10067;53.092;8.800;2024-03-17T02:31:13;25.83;;;5.23;;
19814;SDS011;10067;53.092;8.800;2024-03-17T02:33:40;23.97;;;6.87;;
19814;SDS011;10067;53.092;8.800;2024-03-17T02:36:06;28.60;;;5.87;;
19814;SDS011;10067;53.092;8.800;2024-03-17T02:38:34;22.27;;;5.07;;
19814;SDS011;10067;53.092;8.800;2024-03-17T02:41:19;29.70;;;5.77;;
19814;SDS011;10067;53.092;8.800;2024-03-17T02:43:46;32.20;;;6.33;;
19814;SDS011;10067;53.092;8.800;2024-03-17T02:46:13;25.90;;;6.00;;
19814;SDS011;10067;53.092;8.800;2024-03-17T02:48:40;20.53;;;5.27;;
19814;SDS011;10067;53.092;8.800;2024-03-17T02:51:10;24.63;;;6.70;;
19814;SDS011;10067;53.092;8.800;2024-03-17T02:53:36;24.17;;;5.73;;
19814;SDS011;10067;53.092;8.800;2024-03-17T02:56:03;25.60;;;6.47;;
19814;SDS011;10067;53.092;8.800;2024-03-17T02:58:30;26.57;;;6.77;;
19814;SDS011;10067;53.092;8.800;2024-03-17T03:00:57;24.23;;;5.80;;
19814;SDS011;10067;53.092;8.800;2024-03-17T03:03:22;19.27;;;5.50;;
19814;SDS011;10067;53.092;8.800;2024-03-17T03:05:48;23.77;;;5.97;;
19814;SDS011;10067;53.092;8.800;2024-03-17T03:08:15;21.33;;;5.63;;
19814;SDS011;10067;53.092;8.800;2024-03-17T03:10:43;26.30;;;5.70;;
19814;SDS011;10067;53.092;8.800;2024-03-17T03:13:10;21.83;;;6.40;;
19814;SDS011;10067;53.092;8.800;2024-03-17T03:15:38;22.07;;;5.93;;
19814;SDS011;10067;53.092;8.800;2024-03-17T03:18:04;20.73;;;5.53;;
19814;SDS011;10067;53.092;8.800;2024-03-17T03:20:31;23.60;;;6.17;;
19814;SDS011;10067;53.092;8.800;2024-03-17T03:22:57;27.60;;;7.00;;
19814;SDS011;10067;53.092;8.800;2024-03-17T03:25:24;24.17;;;5.70;;
19814;SDS011;10067;53.092;8.800;2024-03-17T03:27:50;22.13;;;6.10;;
19814;SDS011;10067;53.092;8.800;2024-03-17T03:30:16;29.93;;;7.07;;
19814;SDS011;10067;53.092;8.800;2024-03-17T03:32:47;26.80;;;6.03;;
19814;SDS011;10067;53.092;8.800;2024-03-17T03:35:14;25.53;;;6.60;;
19814;SDS011;10067;53.092;8.800;2024-03-17T03:37:39;21.63;;;5.67;;
19814;SDS011;10067;53.092;8.800;2024-03-17T03:40:06;19.70;;;5.53;;
19814;SDS011;10067;53.092;8.800;2024-03-17T03:42:41;22.47;;;6.20;;
19814;SDS011;10067;53.092;8.800;2024-03-17T03:45:07;26.30;;;5.83;;
19814;SDS011;10067;53.092;8.800;2024-03-17T03:47:34;22.00;;;4.80;;
19814;SDS011;10067;53.092;8.800;2024-03-17T03:50:02;23.80;;;6.03;;
19814;SDS011;10067;53.092;8.800;2024-03-17T03:52:30;21.13;;;5.67;;
19814;SDS011;10067;53.092;8.800;2024-03-17T03:54:56;20.30;;;5.67;;
19814;SDS011;10067;53.092;8.800;2024-03-17T03:57:22;26.83;;;6.30;;
19814;SDS011;10067;53.092;8.800;2024-03-17T03:59:53;25.37;;;6.87;;
19814;SDS011;10067;53.092;8.800;2024-03-17T04:02:20;26.77;;;6.10;;
19814;SDS011;10067;53.092;8.800;2024-03-17T04:04:46;28.13;;;6.47;;
19814;SDS011;10067;53.092;8.800;2024-03-17T04:07:14;29.93;;;7.53;;
19814;SDS011;10067;53.092;8.800;2024-03-17T04:09:42;20.73;;;6.47;;
19814;SDS011;10067;53.092;8.800;2024-03-17T04:12:08;34.47;;;7.23;;
19814;SDS011;10067;53.092;8.800;2024-03-17T04:14:37;22.50;;;5.93;;
19814;SDS011;10067;53.092;8.800;2024-03-17T04:17:04;23.57;;;6.00;;
19814;SDS011;10067;53.092;8.800;2024-03-17T04:19:31;28.30;;;5.73;;
19814;SDS011;10067;53.092;8.800;2024-03-17T04:21:57;21.93;;;6.50;;
19814;SDS011;10067;53.092;8.800;2024-03-17T04:24:25;21.00;;;5.57;;
19814;SDS011;10067;53.092;8.800;2024-03-17T04:26:52;19.80;;;5.40;;
19814;SDS011;10067;53.092;8.800;2024-03-17T04:29:18;24.43;;;5.97;;
19814;SDS011;10067;53.092;8.800;2024-03-17T04:31:45;25.23;;;5.90;;
19814;SDS011;10067;53.092;8.800;2024-03-17T04:34:13;21.90;;;5.70;;
19814;SDS011;10067;53.092;8.800;2024-03-17T04:36:40;25.37;;;5.97;;
19814;SDS011;10067;53.092;8.800;2024-03-17T04:39:06;23.27;;;6.10;;
19814;SDS011;10067;53.092;8.800;2024-03-17T04:41:35;31.00;;;7.00;;
19814;SDS011;10067;53.092;8.800;2024-03-17T04:44:03;25.63;;;6.73;;
19814;SDS011;10067;53.092;8.800;2024-03-17T04:46:31;22.67;;;6.40;;
19814;SDS011;10067;53.092;8.800;2024-03-17T04:48:58;27.57;;;6.67;;
19814;SDS011;10067;53.092;8.800;2024-03-17T04:51:24;19.17;;;6.53;;
19814;SDS011;10067;53.092;8.800;2024-03-17T04:53:50;26.67;;;7.30;;
19814;SDS011;10067;53.092;8.800;2024-03-17T04:56:17;24.87;;;6.63;;
19814;SDS011;10067;53.092;8.800;2024-03-17T04:58:44;25.20;;;6.67;;
19814;SDS011;10067;53.092;8.800;2024-03-17T05:01:11;25.57;;;6.80;;
19814;SDS011;10067;53.092;8.800;2024-03-17T05:03:38;20.30;;;6.10;;
19814;SDS011;10067;53.092;8.800;2024-03-17T05:06:05;26.77;;;7.43;;
19814;SDS011;10067;53.092;8.800;2024-03-17T05:08:32;20.87;;;6.33;;
19814;SDS011;10067;53.092;8.800;2024-03-17T05:11:00;21.37;;;6.03;;
19814;SDS011;10067;53.092;8.800;2024-03-17T05:13:30;16.63;;;5.87;;
19814;SDS011;10067;53.092;8.800;2024-03-17T05:15:59;27.57;;;6.87;;
19814;SDS011;10067;53.092;8.800;2024-03-17T05:18:25;24.33;;;6.03;;
19814;SDS011;10067;53.092;8.800;2024-03-17T05:20:58;24.80;;;7.10;;
19814;SDS011;10067;53.092;8.800;2024-03-17T05:23:25;24.17;;;7.83;;
19814;SDS011;10067;53.092;8.800;2024-03-17T05:25:53;24.27;;;6.33;;
19814;SDS011;10067;53.092;8.800;2024-03-17T05:28:19;28.67;;;7.37;;
19814;SDS011;10067;53.092;8.800;2024-03-17T05:30:45;19.37;;;6.10;;
19814;SDS011;10067;53.092;8.800;2024-03-17T05:33:14;30.57;;;7.33;;
19814;SDS011;10067;53.092;8.800;2024-03-17T05:35:40;29.40;;;6.80;;
19814;SDS011;10067;53.092;8.800;2024-03-17T05:38:14;23.50;;;7.50;;
19814;SDS011;10067;53.092;8.800;2024-03-17T05:40:40;23.53;;;6.53;;
19814;SDS011;10067;53.092;8.800;2024-03-17T05:43:06;22.00;;;6.97;;
19814;SDS011;10067;53.092;8.800;2024-03-17T05:45:33;21.27;;;7.77;;
19814;SDS011;10067;53.092;8.800;2024-03-17T05:47:59;24.70;;;6.77;;
19814;SDS011;10067;53.092;8.800;2024-03-17T05:50:31;22.60;;;6.77;;
19814;SDS011;10067;53.092;8.800;2024-03-17T05:52:58;20.43;;;6.47;;
19814;SDS011;10067;53.092;8.800;2024-03-17T05:55:24;23.43;;;7.23;;
19814;SDS011;10067;53.092;8.800;2024-03-17T05:57:50;23.70;;;7.17;;
19814;SDS011;10067;53.092;8.800;2024-03-17T06:00:17;27.07;;;6.77;;
19814;SDS011;10067;53.092;8.800;2024-03-17T06:02:44;24.60;;;8.30;;
19814;SDS011;10067;53.092;8.800;2024-03-17T06:05:12;29.57;;;7.40;;
19814;SDS011;10067;53.092;8.800;2024-03-17T06:07:40;24.53;;;6.90;;
19814;SDS011;10067;53.092;8.800;2024-03-17T06:10:08;23.07;;;6.90;;
19814;SDS011;10067;53.092;8.800;2024-03-17T06:12:34;28.53;;;6.70;;
19814;SDS011;10067;53.092;8.800;2024-03-17T06:15:02;23.77;;;7.07;;
19814;SDS011;10067;53.092;8.800;2024-03-17T06:17:28;19.23;;;7.27;;
19814;SDS011;10067;53.092;8.800;2024-03-17T06:19:55;23.47;;;6.63;;
19814;SDS011;10067;53.092;8.800;2024-03-17T06:22:22;20.43;;;7.20;;
19814;SDS011;10067;53.092;8.800;2024-03-17T06:24:50;28.20;;;7.50;;
19814;SDS011;10067;53.092;8.800;2024-03-17T06:27:17;26.80;;;7.73;;
19814;SDS011;10067;53.092;8.800;2024-03-17T06:29:43;23.87;;;7.50;;
19814;SDS011;10067;53.092;8.800;2024-03-17T06:32:10;20.90;;;6.90;;
19814;SDS011;10067;53.092;8.800;2024-03-17T06:34:37;22.77;;;6.63;;
19814;SDS011;10067;53.092;8.800;2024-03-17T06:37:03;31.27;;;7.43;;
19814;SDS011;10067;53.092;8.800;2024-03-17T06:39:30;19.63;;;6.03;;
19814;SDS011;10067;53.092;8.800;2024-03-17T06:41:57;25.73;;;6.83;;
19814;SDS011;10067;53.092;8.800;2024-03-17T06:44:24;23.67;;;6.47;;
19814;SDS011;10067;53.092;8.800;2024-03-17T06:46:54;19.83;;;6.93;;
19814;SDS011;10067;53.092;8.800;2024-03-17T06:49:21;19.87;;;6.47;;
19814;SDS011;10067;53.092;8.800;2024-03-17T06:51:47;29.17;;;6.93;;
19814;SDS011;10067;53.092;8.800;2024-03-17T06:54:14;57.53;;;33.47;;
19814;SDS011;10067;53.092;8.800;2024-03-17T06:56:40;63.33;;;39.60;;
19814;SDS011;10067;53.092;8.800;2024-03-17T06:59:08;77.63;;;41.77;;
19814;SDS011;10067;53.092;8.800;2024-03-17T07:01:34;38.27;;;26.40;;
19814;SDS011;10067;53.092;8.800;2024-03-17T07:04:01;43.17;;;21.57;;
19814;SDS011;10067;53.092;8.800;2024-03-17T07:06:28;33.30;;;16.43;;
19814;SDS011;10067;53.092;8.800;2024-03-17T07:08:54;36.33;;;20.23;;
19814;SDS011;10067;53.092;8.800;2024-03-17T07:11:21;34.67;;;14.43;;
19814;SDS011;10067;53.092;8.800;2024-03-17T07:13:48;30.20;;;13.37;;
19814;SDS011;10067;53.092;8.800;2024-03-17T07:16:17;27.05;;;13.05;;
19814;SDS011;10067;53.092;8.800;2024-03-17T07:18:44;28.40;;;8.37;;
19814;SDS011;10067;53.092;8.800;2024-03-17T07:21:10;22.83;;;10.17;;
19814;SDS011;10067;53.092;8.800;2024-03-17T07:23:36;32.77;;;12.53;;
19814;SDS011;10067;53.092;8.800;2024-03-17T07:26:03;20.27;;;8.23;;
19814;SDS011;10067;53.092;8.800;2024-03-17T07:28:31;25.40;;;9.83;;
19814;SDS011;10067;53.092;8.800;2024-03-17T07:30:58;34.60;;;11.37;;
19814;SDS011;10067;53.092;8.800;2024-03-17T07:33:26;34.83;;;18.37;;
19814;SDS011;10067;53.092;8.800;2024-03-17T07:35:53;34.47;;;14.27;;
19814;SDS011;10067;53.092;8.800;2024-03-17T07:38:22;29.07;;;9.80;;
19814;SDS011;10067;53.092;8.800;2024-03-17T07:40:55;22.57;;;9.90;;
19814;SDS011;10067;53.092;8.800;2024-03-17T07:43:22;21.47;;;7.80;;
19814;SDS011;10067;53.092;8.800;2024-03-17T07:45:56;23.20;;;8.00;;
19814;SDS011;10067;53.092;8.800;2024-03-17T07:48:22;24.67;;;11.67;;
19814;SDS011;10067;53.092;8.800;2024-03-17T07:50:54;32.30;;;14.87;;
19814;SDS011;10067;53.092;8.800;2024-03-17T07:53:21;31.83;;;9.23;;
19814;SDS011;10067;53.092;8.800;2024-03-17T07:55:46;24.77;;;9.67;;
19814;SDS011;10067;53.092;8.800;2024-03-17T07:58:12;26.07;;;9.37;;
19814;SDS011;10067;53.092;8.800;2024-03-17T08:00:39;21.13;;;8.00;;
19814;SDS011;10067;53.092;8.800;2024-03-17T08:03:05;24.30;;;8.87;;
19814;SDS011;10067;53.092;8.800;2024-03-17T08:05:32;23.03;;;7.80;;
19814;SDS011;10067;53.092;8.800;2024-03-17T08:08:00;26.97;;;8.53;;
19814;SDS011;10067;53.092;8.800;2024-03-17T08:10:26;26.07;;;8.27;;
19814;SDS011;10067;53.092;8.800;2024-03-17T08:12:52;22.35;;;6.65;;
19814;SDS011;10067;53.092;8.800;2024-03-17T08:15:19;27.03;;;8.37;;
19814;SDS011;10067;53.092;8.800;2024-03-17T08:17:45;22.13;;;7.63;;
19814;SDS011;10067;53.092;8.800;2024-03-17T08:20:11;27.60;;;6.73;;
19814;SDS011;10067;53.092;8.800;2024-03-17T08:22:38;26.27;;;6.07;;
19814;SDS011;10067;53.092;8.800;2024-03-17T08:25:07;46.45;;;32.00;;
19814;SDS011;10067;53.092;8.800;2024-03-17T08:27:34;21.93;;;8.87;;
19814;SDS011;10067;53.092;8.800;2024-03-17T08:30:00;33.25;;;11.70;;
19814;SDS011;10067;53.092;8.800;2024-03-17T08:32:27;28.20;;;14.00;;
19814;SDS011;10067;53.092;8.800;2024-03-17T08:34:54;49.70;;;29.75;;
19814;SDS011;10067;53.092;8.800;2024-03-17T08:37:21;34.67;;;19.65;;
19814;SDS011;10067;53.092;8.800;2024-03-17T08:39:50;26.40;;;12.25;;
19814;SDS011;10067;53.092;8.800;2024-03-17T08:42:18;30.77;;;10.73;;
19814;SDS011;10067;53.092;8.800;2024-03-17T08:44:45;28.40;;;10.02;;
19814;SDS011;10067;53.092;8.800;2024-03-17T08:47:12;24.50;;;10.27;;
19814;SDS011;10067;53.092;8.800;2024-03-17T08:49:38;33.67;;;20.42;;
19814;SDS011;10067;53.092;8.800;2024-03-17T08:52:04;26.38;;;12.50;;
19814;SDS011;10067;53.092;8.800;2024-03-17T08:54:31;35.78;;;18.08;;
19814;SDS011;10067;53.092;8.800;2024-03-17T08:56:57;36.58;;;11.90;;
19814;SDS011;10067;53.092;8.800;2024-03-17T08:59:25;22.52;;;9.25;;
19814;SDS011;10067;53.092;8.800;2024-03-17T09:01:51;17.58;;;7.88;;
19814;SDS011;10067;53.092;8.800;2024-03-17T09:04:17;19.23;;;8.07;;
19814;SDS011;10067;53.092;8.800;2024-03-17T09:06:44;18.90;;;5.72;;
19814;SDS011;10067;53.092;8.800;2024-03-17T09:09:10;40.67;;;15.38;;
19814;SDS011;10067;53.092;8.800;2024-03-17T09:11:39;19.58;;;5.57;;
19814;SDS011;10067;53.092;8.800;2024-03-17T09:14:05;20.48;;;6.70;;
19814;SDS011;10067;53.092;8.800;2024-03-17T09:16:33;15.95;;;4.47;;
19814;SDS011;10067;53.092;8.800;2024-03-17T09:19:00;21.25;;;5.13;;
19814;SDS011;10067;53.092;8.800;2024-03-17T09:21:26;18.85;;;4.68;;
19814;SDS011;10067;53.092;8.800;2024-03-17T09:23:53;15.93;;;4.18;;
19814;SDS011;10067;53.092;8.800;2024-03-17T09:26:19;15.15;;;4.40;;
19814;SDS011;10067;53.092;8.800;2024-03-17T09:28:45;20.25;;;4.50;;
19814;SDS011;10067;53.092;8.800;2024-03-17T09:31:12;17.60;;;4.10;;
19814;SDS011;10067;53.092;8.800;2024-03-17T09:33:39;14.88;;;3.63;;
19814;SDS011;10067;53.092;8.800;2024-03-17T09:36:06;13.38;;;3.70;;
19814;SDS011;10067;53.092;8.800;2024-03-17T09:38:33;15.27;;;3.97;;
19814;SDS011;10067;53.092;8.800;2024-03-17T09:41:00;14.82;;;4.15;;
19814;SDS011;10067;53.092;8.800;2024-03-17T09:43:27;14.68;;;4.15;;
19814;SDS011;10067;53.092;8.800;2024-03-17T09:45:54;13.68;;;4.22;;
19814;SDS011;10067;53.092;8.800;2024-03-17T09:48:22;12.55;;;3.40;;
19814;SDS011;10067;53.092;8.800;2024-03-17T09:50:51;17.20;;;3.88;;
19814;SDS011;10067;53.092;8.800;2024-03-17T09:53:21;17.70;;;3.88;;
19814;SDS011;10067;53.092;8.800;2024-03-17T09:55:48;14.15;;;3.30;;
19814;SDS011;10067;53.092;8.800;2024-03-17T09:58:15;13.50;;;3.30;;
19814;SDS011;10067;53.092;8.800;2024-03-17T10:00:42;10.13;;;2.78;;
19814;SDS011;10067;53.092;8.800;2024-03-17T10:03:09;11.35;;;3.67;;
19814;SDS011;10067;53.092;8.800;2024-03-17T10:05:35;15.32;;;2.80;;
19814;SDS011;10067;53.092;8.800;2024-03-17T10:08:03;12.38;;;2.72;;
19814;SDS011;10067;53.092;8.800;2024-03-17T10:10:29;13.85;;;3.22;;
19814;SDS011;10067;53.092;8.800;2024-03-17T10:12:56;8.02;;;2.58;;
19814;SDS011;10067;53.092;8.800;2024-03-17T10:15:22;11.20;;;2.20;;
19814;SDS011;10067;53.092;8.800;2024-03-17T10:17:49;12.30;;;2.80;;
19814;SDS011;10067;53.092;8.800;2024-03-17T10:20:15;10.43;;;2.67;;
19814;SDS011;10067;53.092;8.800;2024-03-17T10:22:58;8.30;;;2.13;;
19814;SDS011;10067;53.092;8.800;2024-03-17T10:25:26;10.88;;;2.08;;
19814;SDS011;10067;53.092;8.800;2024-03-17T10:27:52;6.32;;;2.15;;
19814;SDS011;10067;53.092;8.800;2024-03-17T10:30:19;11.30;;;2.65;;
19814;SDS011;10067;53.092;8.800;2024-03-17T10:32:48;12.93;;;2.85;;
19814;SDS011;10067;53.092;8.800;2024-03-17T10:35:27;5.53;;;2.28;;
19814;SDS011;10067;53.092;8.800;2024-03-17T10:37:54;6.75;;;2.33;;
19814;SDS011;10067;53.092;8.800;2024-03-17T10:40:21;6.15;;;2.10;;
19814;SDS011;10067;53.092;8.800;2024-03-17T10:42:49;11.07;;;3.13;;
19814;SDS011;10067;53.092;8.800;2024-03-17T10:45:16;7.38;;;2.65;;
19814;SDS011;10067;53.092;8.800;2024-03-17T10:47:43;14.77;;;2.95;;
19814;SDS011;10067;53.092;8.800;2024-03-17T10:50:12;9.80;;;2.55;;
19814;SDS011;10067;53.092;8.800;2024-03-17T10:52:42;8.00;;;2.50;;
19814;SDS011;10067;53.092;8.800;2024-03-17T10:55:11;10.27;;;2.40;;
19814;SDS011;10067;53.092;8.800;2024-03-17T10:57:45;10.90;;;2.78;;
19814;SDS011;10067;53.092;8.800;2024-03-17T11:00:15;9.32;;;2.85;;
19814;SDS011;10067;53.092;8.800;2024-03-17T11:02:43;8.40;;;2.42;;
19814;SDS011;10067;53.092;8.800;2024-03-17T11:05:10;9.70;;;2.42;;
19814;SDS011;10067;53.092;8.800;2024-03-17T11:07:38;60.78;;;19.33;;
19814;SDS011;10067;53.092;8.800;2024-03-17T11:10:10;49.75;;;15.32;;
19814;SDS011;10067;53.092;8.800;2024-03-17T11:12:41;41.60;;;11.18;;
19814;SDS011;10067;53.092;8.800;2024-03-17T11:20:42;45.10;;;10.55;;
19814;SDS011;10067;53.092;8.800;2024-03-17T11:23:09;101.63;;;21.67;;
19814;SDS011;10067;53.092;8.800;2024-03-17T11:25:38;39.45;;;9.38;;
19814;SDS011;10067;53.092;8.800;2024-03-17T11:28:06;59.35;;;15.65;;
19814;SDS011;10067;53.092;8.800;2024-03-17T11:30:41;46.05;;;15.65;;
19814;SDS011;10067;53.092;8.800;2024-03-17T11:33:19;23.38;;;8.05;;
19814;SDS011;10067;53.092;8.800;2024-03-17T11:38:52;9.02;;;2.90;;
19814;SDS011;10067;53.092;8.800;2024-03-17T11:41:30;8.38;;;2.65;;
19814;SDS011;10067;53.092;8.800;2024-03-17T11:46:37;17.83;;;3.38;;
19814;SDS011;10067;53.092;8.800;2024-03-17T11:49:04;11.75;;;3.20;;
19814;SDS011;10067;53.092;8.800;2024-03-17T11:51:32;13.05;;;2.85;;
19814;SDS011;10067;53.092;8.800;2024-03-17T11:53:59;8.15;;;2.80;;
19814;SDS011;10067;53.092;8.800;2024-03-17T11:56:25;9.38;;;3.10;;
19814;SDS011;10067;53.092;8.800;2024-03-17T11:59:03;10.50;;;3.00;;
19814;SDS011;10067;53.092;8.800;2024-03-17T12:01:29;11.27;;;3.33;;
19814;SDS011;10067;53.092;8.800;2024-03-17T12:03:56;11.57;;;3.22;;
19814;SDS011;10067;53.092;8.800;2024-03-17T12:06:25;11.27;;;2.92;;
19814;SDS011;10067;53.092;8.800;2024-03-17T12:08:52;11.48;;;3.08;;
19814;SDS011;10067;53.092;8.800;2024-03-17T12:11:18;11.63;;;2.90;;
19814;SDS011;10067;53.092;8.800;2024-03-17T12:13:44;16.88;;;3.08;;
19814;SDS011;10067;53.092;8.800;2024-03-17T12:16:10;11.65;;;2.75;;
19814;SDS011;10067;53.092;8.800;2024-03-17T12:18:36;7.53;;;2.40;;
19814;SDS011;10067;53.092;8.800;2024-03-17T12:21:06;9.00;;;3.13;;
19814;SDS011;10067;53.092;8.800;2024-03-17T12:23:37;8.55;;;2.70;;
19814;SDS011;10067;53.092;8.800;2024-03-17T12:26:04;9.25;;;3.00;;
19814;SDS011;10067;53.092;8.800;2024-03-17T12:28:29;10.55;;;3.22;;
19814;SDS011;10067;53.092;8.800;2024-03-17T12:30:55;13.05;;;3.20;;
19814;SDS011;10067;53.092;8.800;2024-03-17T12:33:24;10.10;;;3.03;;
19814;SDS011;10067;53.092;8.800;2024-03-17T12:35:50;8.30;;;2.72;;
19814;SDS011;10067;53.092;8.800;2024-03-17T12:38:20;12.27;;;2.80;;
19814;SDS011;10067;53.092;8.800;2024-03-17T12:40:49;11.23;;;3.47;;
19814;SDS011;10067;53.092;8.800;2024-03-17T12:43:14;11.13;;;3.22;;
19814;SDS011;10067;53.092;8.800;2024-03-17T12:45:41;11.35;;;3.13;;
19814;SDS011;10067;53.092;8.800;2024-03-17T12:48:12;8.55;;;2.78;;
19814;SDS011;10067;53.092;8.800;2024-03-17T12:50:44;10.20;;;2.28;;
19814;SDS011;10067;53.092;8.800;2024-03-17T12:53:13;8.30;;;2.67;;
19814;SDS011;10067;53.092;8.800;2024-03-17T12:55:41;12.40;;;3.25;;
19814;SDS011;10067;53.092;8.800;2024-03-17T12:58:27;9.98;;;3.05;;
19814;SDS011;10067;53.092;8.800;2024-03-17T13:01:19;6.72;;;2.70;;
19814;SDS011;10067;53.092;8.800;2024-03-17T13:03:45;13.73;;;2.92;;
19814;SDS011;10067;53.092;8.800;2024-03-17T13:06:20;11.25;;;2.90;;
19814;SDS011;10067;53.092;8.800;2024-03-17T13:08:48;8.98;;;2.83;;
19814;SDS011;10067;53.092;8.800;2024-03-17T13:11:14;8.30;;;2.80;;
19814;SDS011;10067;53.092;8.800;2024-03-17T13:13:42;8.52;;;2.58;;
19814;SDS011;10067;53.092;8.800;2024-03-17T13:16:09;7.13;;;3.05;;
19814;SDS011;10067;53.092;8.800;2024-03-17T13:18:37;11.15;;;2.70;;
19814;SDS011;10067;53.092;8.800;2024-03-17T13:21:04;10.98;;;2.53;;
19814;SDS011;10067;53.092;8.800;2024-03-17T13:23:31;9.57;;;2.38;;
19814;SDS011;10067;53.092;8.800;2024-03-17T13:25:57;9.80;;;2.70;;
19814;SDS011;10067;53.092;8.800;2024-03-17T13:28:24;6.15;;;2.55;;
19814;SDS011;10067;53.092;8.800;2024-03-17T13:30:52;7.45;;;2.40;;
19814;SDS011;10067;53.092;8.800;2024-03-17T13:33:19;12.07;;;2.95;;
19814;SDS011;10067;53.092;8.800;2024-03-17T13:35:45;12.73;;;3.83;;
19814;SDS011;10067;53.092;8.800;2024-03-17T13:38:11;8.18;;;2.45;;
19814;SDS011;10067;53.092;8.800;2024-03-17T13:40:38;7.43;;;2.72;;
19814;SDS011;10067;53.092;8.800;2024-03-17T13:43:06;8.88;;;3.42;;
19814;SDS011;10067;53.092;8.800;2024-03-17T13:45:37;9.02;;;3.15;;
19814;SDS011;10067;53.092;8.800;2024-03-17T13:48:06;6.35;;;3.00;;
19814;SDS011;10067;53.092;8.800;2024-03-17T13:50:34;8.43;;;3.05;;
19814;SDS011;10067;53.092;8.800;2024-03-17T13:53:00;10.18;;;2.70;;
19814;SDS011;10067;53.092;8.800;2024-03-17T13:55:28;6.35;;;2.40;;
19814;SDS011;10067;53.092;8.800;2024-03-17T13:57:56;10.00;;;2.55;;
19814;SDS011;10067;53.092;8.800;2024-03-17T14:00:24;7.63;;;2.30;;
19814;SDS011;10067;53.092;8.800;2024-03-17T14:02:52;8.43;;;2.50;;
19814;SDS011;10067;53.092;8.800;2024-03-17T14:05:20;7.63;;;2.40;;
19814;SDS011;10067;53.092;8.800;2024-03-17T14:07:47;8.18;;;2.58;;
19814;SDS011;10067;53.092;8.800;2024-03-17T14:10:13;8.63;;;2.70;;
19814;SDS011;10067;53.092;8.800;2024-03-17T14:12:40;11.43;;;2.83;;
19814;SDS011;10067;53.092;8.800;2024-03-17T14:15:08;10.65;;;2.72;;
19814;SDS011;10067;53.092;8.800;2024-03-17T14:17:35;6.35;;;2.28;;
19814;SDS011;10067;53.092;8.800;2024-03-17T14:20:02;9.38;;;2.55;;
19814;SDS011;10067;53.092;8.800;2024-03-17T14:22:31;11.60;;;2.60;;
19814;SDS011;10067;53.092;8.800;2024-03-17T14:24:58;11.30;;;2.63;;
19814;SDS011;10067;53.092;8.800;2024-03-17T14:27:24;9.80;;;2.65;;
19814;SDS011;10067;53.092;8.800;2024-03-17T14:29:52;8.32;;;2.55;;
19814;SDS011;10067;53.092;8.800;2024-03-17T14:32:19;12.93;;;3.08;;
19814;SDS011;10067;53.092;8.800;2024-03-17T14:34:46;8.13;;;2.67;;
19814;SDS011;10067;53.092;8.800;2024-03-17T14:37:13;10.95;;;2.95;;
19814;SDS011;10067;53.092;8.800;2024-03-17T14:39:41;9.30;;;2.58;;
19814;SDS011;10067;53.092;8.800;2024-03-17T14:42:09;10.23;;;2.33;;
19814;SDS011;10067;53.092;8.800;2024-03-17T14:44:35;10.52;;;2.60;;
19814;SDS011;10067;53.092;8.800;2024-03-17T14:47:03;8.70;;;2.45;;
19814;SDS011;10067;53.092;8.800;2024-03-17T14:49:29;5.63;;;2.08;;